createdAt,value
2018-10-01T00:00:30.631Z,96.03
2018-10-01T00:01:30.582Z,95.94
2018-10-01T00:02:30.549Z,96.13
2018-10-01T00:03:30.579Z,95.84
2018-10-01T00:04:30.452Z,95.75
2018-10-01T00:05:30.399Z,96.03
2018-10-01T00:06:30.361Z,95.94
2018-10-01T00:07:30.312Z,96.22
2018-10-01T00:08:30.275Z,96.32
2018-10-01T00:09:30.218Z,96.13
2018-10-01T00:10:30.174Z,95.84
2018-10-01T00:11:30.129Z,95.84
2018-10-01T00:12:30.088Z,95.75
2018-10-01T00:13:30.040Z,95.27
2018-10-01T00:14:29.990Z,94.98
2018-10-01T00:15:29.948Z,94.89
2018-10-01T00:16:29.902Z,94.98
2018-10-01T00:17:29.854Z,94.89
2018-10-01T00:18:29.811Z,94.79
2018-10-01T00:19:29.765Z,94.70
2018-10-01T00:20:29.717Z,94.98
2018-10-01T00:21:29.691Z,95.17
2018-10-01T00:22:29.627Z,95.08
2018-10-01T00:23:29.581Z,94.98
2018-10-01T00:24:29.536Z,94.98
2018-10-01T00:25:29.492Z,94.79
2018-10-01T00:26:29.445Z,95.08
2018-10-01T00:27:29.401Z,94.79
2018-10-01T00:28:29.353Z,94.51
2018-10-01T00:29:29.311Z,94.70
2018-10-01T00:30:29.262Z,95.46
2018-10-01T00:31:29.220Z,95.37
2018-10-01T00:32:29.173Z,95.08
2018-10-01T00:33:29.126Z,94.98
2018-10-01T00:34:29.082Z,95.17
2018-10-01T00:35:29.038Z,95.94
2018-10-01T00:36:28.994Z,95.08
2018-10-01T00:37:28.943Z,95.08
2018-10-01T00:38:28.965Z,94.79
2018-10-01T00:39:28.857Z,95.17
2018-10-01T00:40:28.819Z,94.98
2018-10-01T00:41:28.767Z,94.84
2018-10-01T00:42:28.722Z,94.93
2018-10-01T00:43:28.675Z,95.37
2018-10-01T00:44:28.639Z,96.08
2018-10-01T00:45:28.580Z,96.03
2018-10-01T00:46:28.534Z,96.03
2018-10-01T00:47:28.498Z,95.75
2018-10-01T00:48:28.446Z,95.75
2018-10-01T00:49:28.399Z,95.79
2018-10-01T00:50:28.354Z,95.84
2018-10-01T00:51:28.309Z,96.32
2018-10-01T00:52:28.262Z,95.94
2018-10-01T00:53:28.217Z,96.17
2018-10-01T00:54:28.176Z,96.08
2018-10-01T00:55:28.126Z,96.89
2018-10-01T00:56:28.082Z,96.89
2018-10-01T00:57:28.036Z,96.13
2018-10-01T00:58:27.989Z,96.51
2018-10-01T00:59:27.950Z,96.13
2018-10-01T01:00:27.898Z,96.89
2018-10-01T01:01:27.855Z,96.98
2018-10-01T01:02:27.814Z,97.46
2018-10-01T01:03:27.768Z,96.70
2018-10-01T01:04:27.721Z,96.89
2018-10-01T01:05:27.672Z,97.08
2018-10-01T01:06:27.626Z,97.27
2018-10-01T01:07:27.582Z,97.56
2018-10-01T01:08:27.536Z,97.37
2018-10-01T01:09:27.489Z,97.56
2018-10-01T01:10:27.445Z,97.85
2018-10-01T01:11:30.155Z,98.03
2018-10-01T01:12:27.358Z,97.56
2018-10-01T01:13:27.308Z,97.75
2018-10-01T01:14:27.263Z,98.32
2018-10-01T01:15:27.215Z,98.13
2018-10-01T01:16:27.172Z,98.03
2018-10-01T01:17:27.129Z,98.13
2018-10-01T01:18:27.089Z,98.03
2018-10-01T01:19:27.039Z,98.32
2018-10-01T01:20:26.990Z,97.94
2018-10-01T01:21:26.944Z,98.42
2018-10-01T01:22:26.896Z,98.61
2018-10-01T01:23:26.853Z,98.70
2018-10-01T01:24:26.807Z,98.80
2018-10-01T01:25:26.763Z,98.32
2018-10-01T01:26:26.717Z,98.42
2018-10-01T01:27:26.674Z,98.22
2018-10-01T01:28:26.627Z,98.32
2018-10-01T01:29:26.579Z,98.42
2018-10-01T01:30:26.534Z,98.32
2018-10-01T01:31:26.488Z,98.51
2018-10-01T01:32:26.440Z,98.99
2018-10-01T01:33:26.399Z,98.42
2018-10-01T01:34:26.353Z,97.56
2018-10-01T01:35:26.311Z,97.56
2018-10-01T01:36:26.264Z,97.75
2018-10-01T01:37:26.214Z,97.17
2018-10-01T01:38:26.170Z,97.46
2018-10-01T01:39:26.123Z,96.80
2018-10-01T01:40:26.084Z,97.17
2018-10-01T01:41:26.036Z,96.80
2018-10-01T01:42:25.994Z,96.32
2018-10-01T01:43:25.947Z,96.22
2018-10-01T01:44:25.899Z,96.13
2018-10-01T01:45:25.852Z,96.22
2018-10-01T01:46:25.814Z,96.51
2018-10-01T01:47:25.760Z,96.13
2018-10-01T01:48:25.716Z,95.75
2018-10-01T01:49:25.669Z,96.03
2018-10-01T01:50:25.624Z,95.75
2018-10-01T01:51:25.578Z,96.22
2018-10-01T01:52:25.531Z,96.32
2018-10-01T01:53:25.487Z,96.03
2018-10-01T01:54:25.523Z,95.94
2018-10-01T01:55:25.401Z,95.46
2018-10-01T01:56:25.350Z,95.84
2018-10-01T01:57:25.304Z,95.94
2018-10-01T01:58:25.261Z,95.94
2018-10-01T01:59:25.213Z,95.84
2018-10-01T02:00:25.168Z,95.65
2018-10-01T02:01:25.130Z,95.94
2018-10-01T02:02:25.075Z,95.75
2018-10-01T02:03:25.030Z,95.65
2018-10-01T02:04:24.985Z,96.03
2018-10-01T02:05:24.941Z,96.22
2018-10-01T02:06:24.895Z,95.84
2018-10-01T02:07:24.854Z,96.51
2018-10-01T02:08:24.815Z,96.51
2018-10-01T02:09:24.757Z,96.03
2018-10-01T02:10:24.719Z,96.22
2018-10-01T02:11:24.674Z,96.70
2018-10-01T02:12:24.623Z,96.70
2018-10-01T02:13:24.580Z,96.70
2018-10-01T02:14:24.533Z,96.84
2018-10-01T02:15:24.484Z,96.65
2018-10-01T02:16:24.442Z,95.79
2018-10-01T02:17:24.402Z,96.27
2018-10-01T02:18:24.351Z,96.84
2018-10-01T02:19:24.301Z,96.84
2018-10-01T02:20:24.255Z,96.75
2018-10-01T02:21:24.210Z,95.79
2018-10-01T02:22:24.163Z,96.17
2018-10-01T02:23:24.121Z,96.27
2018-10-01T02:24:24.072Z,96.08
2018-10-01T02:25:24.026Z,95.98
2018-10-01T02:26:23.980Z,96.27
2018-10-01T02:27:23.934Z,95.70
2018-10-01T02:28:23.890Z,96.36
2018-10-01T02:29:23.849Z,96.17
2018-10-01T02:30:23.798Z,95.70
2018-10-01T02:31:23.751Z,95.70
2018-10-01T02:32:23.706Z,96.56
2018-10-01T02:33:23.659Z,96.27
2018-10-01T02:34:23.615Z,96.27
2018-10-01T02:35:23.567Z,96.36
2018-10-01T02:36:23.577Z,96.17
2018-10-01T02:37:23.483Z,96.27
2018-10-01T02:38:23.434Z,96.27
2018-10-01T02:39:23.386Z,96.17
2018-10-01T02:40:23.340Z,96.27
2018-10-01T02:41:23.292Z,96.08
2018-10-01T02:42:23.249Z,96.08
2018-10-01T02:43:23.202Z,96.84
2018-10-01T02:44:23.158Z,96.94
2018-10-01T02:45:23.111Z,96.84
2018-10-01T02:46:23.071Z,96.75
2018-10-01T02:47:23.019Z,96.75
2018-10-01T02:48:22.972Z,96.94
2018-10-01T02:49:22.930Z,96.84
2018-10-01T02:50:22.880Z,96.36
2018-10-01T02:51:22.837Z,96.70
2018-10-01T02:52:22.789Z,97.03
2018-10-01T02:53:22.759Z,96.65
2018-10-01T02:54:22.700Z,96.51
2018-10-01T02:55:22.654Z,96.41
2018-10-01T02:56:22.607Z,96.70
2018-10-01T02:57:22.560Z,97.03
2018-10-01T02:58:22.514Z,97.27
2018-10-01T02:59:22.469Z,97.46
2018-10-01T03:00:22.423Z,97.46
2018-10-01T03:01:22.379Z,97.46
2018-10-01T03:02:22.330Z,97.36
2018-10-01T03:03:22.286Z,97.75
2018-10-01T03:04:22.240Z,98.22
2018-10-01T03:05:22.195Z,97.94
2018-10-01T03:06:22.146Z,97.46
2018-10-01T03:07:22.102Z,97.46
2018-10-01T03:08:22.056Z,97.56
2018-10-01T03:09:22.009Z,97.65
2018-10-01T03:10:21.964Z,97.36
2018-10-01T03:11:21.920Z,97.65
2018-10-01T03:12:21.884Z,98.03
2018-10-01T03:13:21.842Z,97.75
2018-10-01T03:14:21.780Z,97.84
2018-10-01T03:15:21.736Z,97.94
2018-10-01T03:16:21.686Z,97.84
2018-10-01T03:17:21.642Z,98.03
2018-10-01T03:18:21.594Z,97.75
2018-10-01T03:19:21.548Z,97.94
2018-10-01T03:20:21.502Z,98.22
2018-10-01T03:21:21.524Z,98.13
2018-10-01T03:22:21.412Z,97.94
2018-10-01T03:23:21.365Z,98.32
2018-10-01T03:24:21.319Z,98.32
2018-10-01T03:25:21.278Z,97.65
2018-10-01T03:26:21.230Z,97.94
2018-10-01T03:27:21.182Z,98.60
2018-10-01T03:28:21.137Z,98.32
2018-10-01T03:29:21.092Z,98.41
2018-10-01T03:30:21.044Z,98.99
2018-10-01T03:31:20.999Z,98.79
2018-10-01T03:32:20.958Z,98.99
2018-10-01T03:33:20.906Z,98.89
2018-10-01T03:34:20.861Z,99.27
2018-10-01T03:35:20.818Z,98.79
2018-10-01T03:36:20.771Z,98.99
2018-10-01T03:37:20.721Z,98.99
2018-10-01T03:38:20.676Z,98.99
2018-10-01T03:39:20.630Z,98.70
2018-10-01T03:40:20.698Z,98.99
2018-10-01T03:41:20.539Z,98.60
2018-10-01T03:42:20.497Z,98.60
2018-10-01T03:43:20.446Z,98.41
2018-10-01T03:44:20.398Z,97.84
2018-10-01T03:45:20.356Z,97.84
2018-10-01T03:46:20.308Z,98.51
2018-10-01T03:47:20.273Z,98.41
2018-10-01T03:48:20.215Z,98.13
2018-10-01T03:49:20.178Z,98.79
2018-10-01T03:50:20.129Z,98.89
2018-10-01T03:51:20.097Z,98.89
2018-10-01T03:52:20.052Z,98.79
2018-10-01T03:53:19.989Z,98.60
2018-10-01T03:54:19.941Z,98.89
2018-10-01T03:55:19.894Z,98.32
2018-10-01T03:56:19.848Z,98.18
2018-10-01T03:57:19.809Z,98.41
2018-10-01T03:58:19.760Z,97.99
2018-10-01T03:59:19.713Z,97.61
2018-10-01T04:00:19.664Z,97.70
2018-10-01T04:01:19.641Z,97.03
2018-10-01T04:02:19.574Z,97.36
2018-10-01T04:03:19.528Z,96.89
2018-10-01T04:04:19.482Z,96.36
2018-10-01T04:05:19.434Z,96.46
2018-10-01T04:06:19.389Z,96.65
2018-10-01T04:07:19.343Z,96.56
2018-10-01T04:08:19.297Z,96.65
2018-10-01T04:09:19.254Z,96.75
2018-10-01T04:10:19.205Z,96.65
2018-10-01T04:11:19.159Z,96.75
2018-10-01T04:12:19.114Z,96.75
2018-10-01T04:13:19.069Z,96.56
2018-10-01T04:14:19.033Z,96.65
2018-10-01T04:15:18.975Z,96.56
2018-10-01T04:16:18.933Z,96.08
2018-10-01T04:17:18.888Z,96.17
2018-10-01T04:18:18.847Z,96.94
2018-10-01T04:19:18.811Z,96.84
2018-10-01T04:20:18.759Z,96.08
2018-10-01T04:21:18.721Z,95.61
2018-10-01T04:22:18.653Z,95.89
2018-10-01T04:23:18.614Z,95.12
2018-10-01T04:24:18.570Z,95.51
2018-10-01T04:25:18.520Z,94.93
2018-10-01T04:26:18.472Z,95.03
2018-10-01T04:27:18.432Z,95.12
2018-10-01T04:28:18.407Z,95.12
2018-10-01T04:29:18.345Z,94.84
2018-10-01T04:30:18.289Z,94.84
2018-10-01T04:31:18.242Z,95.12
2018-10-01T04:32:18.197Z,95.12
2018-10-01T04:33:18.151Z,95.32
2018-10-01T04:34:18.106Z,94.46
2018-10-01T04:35:18.063Z,94.46
2018-10-01T04:36:18.011Z,94.56
2018-10-01T04:37:17.970Z,94.17
2018-10-01T04:38:17.923Z,94.37
2018-10-01T04:39:17.875Z,94.84
2018-10-01T04:40:17.829Z,94.74
2018-10-01T04:41:17.782Z,94.84
2018-10-01T04:42:17.736Z,94.74
2018-10-01T04:43:17.691Z,94.65
2018-10-01T04:44:17.648Z,94.84
2018-10-01T04:45:17.603Z,95.32
2018-10-01T04:46:17.556Z,94.93
2018-10-01T04:47:17.510Z,95.32
2018-10-01T04:48:17.462Z,95.12
2018-10-01T04:49:17.435Z,95.32
2018-10-01T04:50:17.375Z,94.93
2018-10-01T04:51:17.325Z,94.74
2018-10-01T04:52:17.283Z,95.03
2018-10-01T04:53:17.239Z,95.03
2018-10-01T04:54:17.192Z,95.51
2018-10-01T04:55:17.147Z,94.93
2018-10-01T04:56:17.099Z,94.74
2018-10-01T04:57:17.051Z,94.93
2018-10-01T04:58:17.155Z,95.03
2018-10-01T04:59:16.961Z,94.93
2018-10-01T05:00:16.923Z,94.74
2018-10-01T05:01:16.873Z,95.12
2018-10-01T05:02:16.822Z,95.03
2018-10-01T05:03:16.780Z,95.03
2018-10-01T05:04:16.730Z,94.84
2018-10-01T05:05:16.686Z,94.93
2018-10-01T05:06:16.686Z,94.74
2018-10-01T05:07:16.593Z,94.56
2018-10-01T05:08:16.548Z,94.08
2018-10-01T05:09:16.503Z,94.08
2018-10-01T05:10:16.456Z,94.46
2018-10-01T05:11:16.410Z,94.27
2018-10-01T05:12:16.365Z,94.27
2018-10-01T05:13:16.323Z,94.37
2018-10-01T05:14:16.276Z,94.37
2018-10-01T05:15:16.231Z,94.37
2018-10-01T05:16:16.180Z,94.56
2018-10-01T05:17:16.134Z,93.98
2018-10-01T05:18:16.091Z,94.08
2018-10-01T05:19:16.043Z,94.08
2018-10-01T05:20:15.999Z,94.37
2018-10-01T05:21:15.951Z,94.17
2018-10-01T05:22:15.905Z,94.37
2018-10-01T05:23:15.861Z,93.98
2018-10-01T05:24:15.814Z,94.37
2018-10-01T05:25:15.769Z,94.46
2018-10-01T05:26:15.722Z,94.37
2018-10-01T05:27:15.761Z,94.56
2018-10-01T05:28:15.630Z,94.37
2018-10-01T05:29:15.586Z,94.37
2018-10-01T05:30:15.539Z,94.46
2018-10-01T05:31:15.501Z,94.27
2018-10-01T05:32:15.448Z,94.65
2018-10-01T05:33:15.403Z,94.84
2018-10-01T05:34:15.356Z,94.74
2018-10-01T05:35:15.309Z,94.74
2018-10-01T05:36:15.261Z,94.08
2018-10-01T05:37:15.223Z,93.88
2018-10-01T05:38:15.174Z,93.88
2018-10-01T05:39:15.127Z,93.70
2018-10-01T05:40:15.083Z,93.60
2018-10-01T05:41:15.034Z,93.60
2018-10-01T05:42:14.992Z,93.98
2018-10-01T05:43:14.943Z,93.98
2018-10-01T05:44:14.898Z,93.70
2018-10-01T05:45:14.856Z,93.98
2018-10-01T05:46:14.806Z,93.51
2018-10-01T05:47:14.761Z,93.60
2018-10-01T05:48:14.712Z,93.51
2018-10-01T05:49:14.696Z,93.60
2018-10-01T05:50:14.623Z,93.51
2018-10-01T05:51:14.578Z,93.51
2018-10-01T05:52:14.536Z,93.60
2018-10-01T05:53:14.486Z,93.41
2018-10-01T05:54:14.439Z,93.22
2018-10-01T05:55:14.394Z,93.32
2018-10-01T05:56:14.352Z,93.60
2018-10-01T05:57:14.315Z,93.41
2018-10-01T05:58:14.334Z,93.41
2018-10-01T05:59:14.208Z,93.03
2018-10-01T06:00:14.166Z,93.98
2018-10-01T06:01:14.118Z,93.70
2018-10-01T06:02:14.081Z,93.60
2018-10-01T06:03:14.026Z,93.88
2018-10-01T06:04:13.980Z,93.79
2018-10-01T06:05:13.933Z,93.79
2018-10-01T06:06:13.888Z,93.70
2018-10-01T06:07:13.843Z,93.79
2018-10-01T06:08:13.800Z,93.79
2018-10-01T06:09:13.751Z,93.98
2018-10-01T06:10:13.704Z,93.98
2018-10-01T06:11:13.661Z,93.98
2018-10-01T06:12:13.622Z,93.70
2018-10-01T06:13:13.566Z,93.79
2018-10-01T06:14:13.523Z,93.98
2018-10-01T06:15:13.476Z,94.17
2018-10-01T06:16:13.431Z,94.65
2018-10-01T06:17:13.382Z,94.46
2018-10-01T06:18:13.378Z,94.27
2018-10-01T06:19:13.294Z,94.37
2018-10-01T06:20:13.246Z,94.46
2018-10-01T06:21:13.205Z,95.12
2018-10-01T06:22:13.167Z,95.12
2018-10-01T06:23:13.107Z,94.93
2018-10-01T06:24:13.061Z,94.89
2018-10-01T06:25:13.045Z,94.60
2018-10-01T06:26:12.970Z,94.89
2018-10-01T06:27:12.924Z,94.89
2018-10-01T06:28:12.877Z,94.74
2018-10-01T06:29:12.833Z,94.60
2018-10-01T06:30:12.787Z,95.12
2018-10-01T06:31:12.740Z,94.93
2018-10-01T06:32:12.693Z,94.89
2018-10-01T06:33:12.648Z,94.65
2018-10-01T06:34:12.611Z,95.12
2018-10-01T06:35:12.924Z,95.22
2018-10-01T06:36:12.573Z,94.93
2018-10-01T06:37:12.465Z,95.32
2018-10-01T06:38:12.417Z,94.65
2018-10-01T06:39:12.375Z,94.46
2018-10-01T06:40:12.331Z,94.37
2018-10-01T06:41:12.282Z,94.46
2018-10-01T06:42:12.259Z,94.37
2018-10-01T06:43:12.189Z,93.60
2018-10-01T06:44:12.142Z,94.27
2018-10-01T06:45:12.097Z,93.41
2018-10-01T06:46:12.051Z,93.79
2018-10-01T06:47:12.008Z,93.51
2018-10-01T06:48:11.959Z,93.46
2018-10-01T06:49:11.915Z,93.17
2018-10-01T06:50:11.872Z,93.46
2018-10-01T06:51:11.857Z,93.32
2018-10-01T06:52:11.780Z,93.08
2018-10-01T06:53:11.734Z,92.55
2018-10-01T06:54:11.684Z,93.08
2018-10-01T06:55:11.642Z,92.88
2018-10-01T06:56:11.597Z,92.88
2018-10-01T06:57:11.550Z,92.32
2018-10-01T06:58:11.503Z,92.12
2018-10-01T06:59:11.457Z,92.22
2018-10-01T07:00:11.411Z,91.64
2018-10-01T07:01:11.408Z,92.03
2018-10-01T07:02:11.320Z,91.64
2018-10-01T07:03:11.273Z,91.07
2018-10-01T07:04:11.228Z,91.27
2018-10-01T07:05:11.200Z,90.79
2018-10-01T07:06:11.160Z,90.41
2018-10-01T07:07:11.100Z,90.22
2018-10-01T07:08:11.053Z,89.97
2018-10-01T07:09:11.001Z,89.97
2018-10-01T07:10:10.956Z,90.17
2018-10-01T07:11:10.988Z,89.69
2018-10-01T07:12:10.866Z,89.59
2018-10-01T07:13:10.819Z,89.12
2018-10-01T07:14:10.783Z,89.59
2018-10-01T07:15:10.732Z,89.59
2018-10-01T07:16:10.690Z,89.40
2018-10-01T07:17:10.744Z,89.59
2018-10-01T07:18:10.593Z,89.36
2018-10-01T07:19:10.547Z,90.07
2018-10-01T07:20:10.503Z,89.31
2018-10-01T07:21:10.456Z,89.36
2018-10-01T07:22:10.418Z,89.02
2018-10-01T07:23:10.454Z,89.02
2018-10-01T07:24:10.322Z,89.12
2018-10-01T07:25:10.274Z,88.92
2018-10-01T07:26:10.232Z,88.83
2018-10-01T07:27:10.185Z,88.83
2018-10-01T07:28:10.138Z,89.02
2018-10-01T07:29:10.093Z,88.92
2018-10-01T07:30:10.051Z,88.92
2018-10-01T07:31:10.011Z,88.83
2018-10-01T07:32:09.961Z,88.92
2018-10-01T07:33:09.914Z,88.16
2018-10-01T07:34:09.869Z,87.78
2018-10-01T07:35:09.822Z,87.87
2018-10-01T07:36:09.776Z,87.59
2018-10-01T07:37:09.745Z,87.02
2018-10-01T07:38:09.687Z,87.11
2018-10-01T07:39:09.641Z,87.30
2018-10-01T07:40:09.593Z,87.82
2018-10-01T07:41:09.554Z,86.10
2018-10-01T07:42:09.506Z,85.67
2018-10-01T07:43:09.466Z,85.38
2018-10-01T07:44:09.416Z,83.86
2018-10-01T07:45:09.445Z,82.65
2018-10-01T07:46:09.412Z,82.08
2018-10-01T07:47:09.277Z,81.70
2018-10-01T07:48:09.236Z,80.69
2018-10-01T07:49:09.194Z,80.11
2018-10-01T07:50:09.143Z,80.40
2018-10-01T07:51:09.212Z,79.25
2018-10-01T07:52:09.053Z,78.72
2018-10-01T07:53:09.017Z,78.24
2018-10-01T07:54:08.963Z,77.28
2018-10-01T07:55:08.920Z,77.00
2018-10-01T07:56:08.876Z,76.14
2018-10-01T07:57:08.870Z,75.37
2018-10-01T07:58:08.783Z,75.56
2018-10-01T07:59:08.741Z,75.56
2018-10-01T08:00:08.783Z,74.93
2018-10-01T08:01:08.651Z,75.12
2018-10-01T08:02:08.675Z,74.93
2018-10-01T08:03:08.562Z,75.31
2018-10-01T08:04:08.519Z,74.74
2018-10-01T08:05:08.475Z,74.36
2018-10-01T08:06:08.430Z,74.45
2018-10-01T08:07:08.383Z,75.02
2018-10-01T08:08:08.389Z,74.55
2018-10-01T08:09:08.300Z,74.45
2018-10-01T08:10:08.251Z,74.01
2018-10-01T08:11:08.213Z,73.54
2018-10-01T08:12:08.161Z,74.01
2018-10-01T08:13:08.118Z,74.49
2018-10-01T08:14:08.101Z,74.40
2018-10-01T08:15:08.029Z,74.58
2018-10-01T08:16:07.984Z,74.58
2018-10-01T08:17:07.943Z,74.11
2018-10-01T08:18:07.898Z,73.91
2018-10-01T08:19:07.855Z,74.15
2018-10-01T08:20:07.854Z,73.09
2018-10-01T08:21:07.772Z,73.72
2018-10-01T08:22:07.724Z,73.57
2018-10-01T08:23:07.689Z,73.34
2018-10-01T08:24:07.635Z,73.54
2018-10-01T08:25:07.601Z,73.82
2018-10-01T08:26:07.613Z,74.11
2018-10-01T08:27:07.507Z,74.01
2018-10-01T08:28:07.459Z,73.72
2018-10-01T08:29:07.460Z,73.91
2018-10-01T08:30:07.376Z,73.95
2018-10-01T08:31:07.328Z,73.76
2018-10-01T08:32:07.303Z,73.09
2018-10-01T08:33:07.243Z,73.28
2018-10-01T08:34:07.197Z,73.09
2018-10-01T08:35:07.217Z,72.99
2018-10-01T08:36:07.109Z,72.13
2018-10-01T08:37:07.065Z,71.75
2018-10-01T08:38:07.041Z,72.13
2018-10-01T08:39:06.980Z,71.78
2018-10-01T08:40:06.939Z,70.98
2018-10-01T08:41:06.936Z,70.31
2018-10-01T08:42:06.852Z,70.41
2018-10-01T08:43:06.804Z,70.03
2018-10-01T08:44:06.822Z,70.50
2018-10-01T08:45:06.723Z,69.93
2018-10-01T08:46:06.673Z,69.10
2018-10-01T08:47:06.639Z,69.48
2018-10-01T08:48:06.586Z,68.59
2018-10-01T08:49:06.545Z,68.68
2018-10-01T08:50:06.569Z,68.87
2018-10-01T08:51:06.455Z,69.35
2018-10-01T08:52:06.454Z,69.01
2018-10-01T08:53:06.460Z,68.49
2018-10-01T08:54:06.325Z,68.05
2018-10-01T08:55:06.282Z,67.95
2018-10-01T08:56:06.261Z,68.05
2018-10-01T08:57:06.196Z,67.66
2018-10-01T08:58:06.152Z,67.85
2018-10-01T08:59:06.161Z,67.76
2018-10-01T09:00:06.065Z,67.47
2018-10-01T09:01:06.071Z,67.95
2018-10-01T09:02:06.036Z,67.66
2018-10-01T09:03:05.934Z,67.76
2018-10-01T09:04:05.892Z,67.66
2018-10-01T09:05:05.886Z,67.99
2018-10-01T09:06:05.810Z,67.22
2018-10-01T09:07:05.760Z,66.93
2018-10-01T09:08:05.721Z,66.74
2018-10-01T09:09:05.674Z,67.18
2018-10-01T09:10:05.630Z,67.89
2018-10-01T09:11:05.635Z,67.38
2018-10-01T09:12:05.545Z,67.09
2018-10-01T09:13:05.501Z,67.95
2018-10-01T09:14:05.483Z,67.57
2018-10-01T09:15:05.501Z,67.57
2018-10-01T09:16:05.369Z,67.72
2018-10-01T09:17:05.343Z,68.21
2018-10-01T09:18:05.282Z,67.72
2018-10-01T09:19:05.241Z,67.63
2018-10-01T09:20:05.324Z,68.11
2018-10-01T09:21:05.233Z,68.40
2018-10-01T09:22:05.118Z,68.59
2018-10-01T09:23:05.075Z,68.68
2018-10-01T09:24:05.033Z,68.68
2018-10-01T09:25:04.983Z,68.59
2018-10-01T09:26:05.012Z,68.62
2018-10-01T09:27:04.892Z,68.62
2018-10-01T09:28:04.848Z,68.62
2018-10-01T09:29:04.873Z,68.52
2018-10-01T09:30:04.762Z,69.29
2018-10-01T09:31:04.809Z,69.29
2018-10-01T09:32:04.716Z,69.58
2018-10-01T09:33:04.632Z,69.01
2018-10-01T09:34:04.597Z,68.81
2018-10-01T09:35:04.572Z,68.72
2018-10-01T09:36:04.503Z,69.10
2018-10-01T09:37:04.460Z,69.39
2018-10-01T09:38:04.465Z,69.10
2018-10-01T09:39:04.370Z,68.87
2018-10-01T09:40:04.332Z,68.49
2018-10-01T09:41:04.285Z,69.17
2018-10-01T09:42:04.358Z,69.07
2018-10-01T09:43:04.199Z,70.21
2018-10-01T09:44:04.180Z,70.41
2018-10-01T09:45:04.110Z,70.85
2018-10-01T09:46:04.121Z,70.85
2018-10-01T09:47:04.023Z,71.04
2018-10-01T09:48:04.007Z,70.47
2018-10-01T09:49:03.936Z,70.95
2018-10-01T09:50:03.922Z,71.71
2018-10-01T09:51:03.869Z,71.46
2018-10-01T09:52:03.834Z,71.37
2018-10-01T09:53:03.761Z,71.52
2018-10-01T09:54:03.716Z,70.66
2018-10-01T09:55:03.676Z,70.66
2018-10-01T09:56:03.687Z,70.95
2018-10-01T09:57:03.590Z,70.28
2018-10-01T09:58:03.571Z,69.89
2018-10-01T09:59:03.498Z,70.47
2018-10-01T10:00:03.457Z,70.66
2018-10-01T10:01:03.415Z,70.76
2018-10-01T10:02:03.422Z,70.76
2018-10-01T10:03:03.330Z,71.04
2018-10-01T10:04:03.340Z,71.04
2018-10-01T10:05:03.237Z,69.89
2018-10-01T10:06:03.196Z,68.84
2018-10-01T10:07:03.155Z,68.65
2018-10-01T10:08:03.126Z,68.65
2018-10-01T10:09:03.066Z,68.65
2018-10-01T10:10:03.032Z,68.55
2018-10-01T10:11:02.989Z,68.27
2018-10-01T10:12:02.937Z,67.69
2018-10-01T10:13:02.887Z,66.74
2018-10-01T10:14:02.890Z,66.25
2018-10-01T10:15:02.799Z,66.96
2018-10-01T10:16:02.798Z,68.01
2018-10-01T10:17:02.760Z,68.11
2018-10-01T10:18:02.740Z,67.63
2018-10-01T10:19:02.624Z,66.58
2018-10-01T10:20:02.598Z,65.23
2018-10-01T10:21:02.540Z,65.14
2018-10-01T10:22:02.549Z,64.28
2018-10-01T10:23:02.450Z,64.56
2018-10-01T10:24:02.408Z,64.28
2018-10-01T10:25:02.363Z,63.42
2018-10-01T10:26:02.342Z,63.89
2018-10-01T10:27:02.314Z,64.56
2018-10-01T10:28:02.287Z,64.28
2018-10-01T10:29:02.197Z,63.99
2018-10-01T10:30:02.152Z,65.05
2018-10-01T10:31:02.109Z,65.33
2018-10-01T10:32:02.064Z,65.42
2018-10-01T10:33:02.014Z,64.76
2018-10-01T10:34:01.987Z,65.23
2018-10-01T10:35:01.926Z,65.42
2018-10-01T10:36:01.882Z,66.29
2018-10-01T10:37:01.840Z,65.71
2018-10-01T10:38:01.799Z,66.19
2018-10-01T10:39:01.755Z,66.09
2018-10-01T10:40:01.707Z,66.58
2018-10-01T10:41:01.666Z,66.58
2018-10-01T10:42:01.623Z,66.86
2018-10-01T10:43:01.582Z,66.77
2018-10-01T10:44:01.592Z,65.71
2018-10-01T10:45:01.492Z,65.52
2018-10-01T10:46:01.473Z,65.42
2018-10-01T10:47:01.406Z,65.23
2018-10-01T10:48:01.413Z,64.85
2018-10-01T10:49:01.320Z,64.85
2018-10-01T10:50:01.276Z,65.23
2018-10-01T10:51:01.230Z,63.99
2018-10-01T10:52:01.183Z,63.80
2018-10-01T10:53:01.140Z,64.18
2018-10-01T10:54:01.098Z,64.09
2018-10-01T10:55:01.057Z,64.09
2018-10-01T10:56:01.041Z,63.86
2018-10-01T10:57:01.014Z,65.39
2018-10-01T10:58:00.932Z,65.20
2018-10-01T10:59:00.880Z,66.45
2018-10-01T11:00:00.836Z,70.09
2018-10-01T11:01:00.796Z,73.50
2018-10-01T11:02:00.752Z,74.45
2018-10-01T11:03:00.705Z,75.51
2018-10-01T11:04:00.686Z,78.05
2018-10-01T11:05:00.616Z,78.72
2018-10-01T11:06:00.698Z,79.96
2018-10-01T11:07:00.618Z,79.77
2018-10-01T11:08:00.583Z,79.39
2018-10-01T11:09:00.438Z,80.11
2018-10-01T11:10:00.464Z,80.02
2018-10-01T11:11:00.354Z,79.83
2018-10-01T11:12:00.307Z,80.11
2018-10-01T11:13:00.291Z,81.07
2018-10-01T11:14:00.395Z,81.36
2018-10-01T11:15:00.503Z,82.56
2018-10-01T11:16:00.260Z,83.23
2018-10-01T11:17:00.463Z,84.28
2018-10-01T11:18:00.637Z,84.47
2018-10-01T11:19:00.229Z,84.76
2018-10-01T11:20:00.046Z,85.33
2018-10-01T11:21:00.131Z,86.67
2018-10-01T11:22:00.043Z,87.01
2018-10-01T11:22:59.822Z,87.72
2018-10-01T11:23:59.774Z,88.39
2018-10-01T11:24:59.735Z,87.10
2018-10-01T11:25:59.685Z,87.29
2018-10-01T11:26:59.753Z,87.68
2018-10-01T11:27:59.597Z,88.06
2018-10-01T11:28:59.615Z,88.44
2018-10-01T11:29:59.508Z,87.96
2018-10-01T11:30:59.463Z,86.91
2018-10-01T11:31:59.497Z,87.82
2018-10-01T11:32:59.449Z,88.87
2018-10-01T11:33:59.330Z,89.92
2018-10-01T11:34:59.405Z,90.68
2018-10-01T11:35:59.241Z,90.30
2018-10-01T11:36:59.195Z,89.53
2018-10-01T11:37:59.151Z,88.96
2018-10-01T11:38:59.167Z,87.34
2018-10-01T11:39:59.064Z,88.10
2018-10-01T11:40:59.016Z,90.11
2018-10-01T11:41:58.972Z,90.34
2018-10-01T11:42:58.929Z,90.59
2018-10-01T11:43:58.881Z,90.63
2018-10-01T11:44:58.849Z,90.63
2018-10-01T11:45:58.798Z,89.48
2018-10-01T11:46:58.750Z,89.10
2018-10-01T11:47:58.703Z,88.34
2018-10-01T11:48:58.659Z,88.72
2018-10-01T11:49:58.613Z,87.86
2018-10-01T11:50:58.603Z,87.29
2018-10-01T11:51:58.527Z,86.80
2018-10-01T11:52:58.481Z,85.28
2018-10-01T11:53:58.437Z,85.47
2018-10-01T11:54:58.392Z,87.38
2018-10-01T11:55:58.349Z,85.66
2018-10-01T11:56:58.316Z,86.33
2018-10-01T11:57:58.259Z,87.00
2018-10-01T11:58:58.215Z,85.57
2018-10-01T11:59:58.168Z,84.32
2018-10-01T12:00:58.124Z,83.56
2018-10-01T12:01:58.128Z,83.84
2018-10-01T12:02:58.103Z,85.09
2018-10-01T12:03:58.076Z,86.14
2018-10-01T12:04:57.955Z,85.75
2018-10-01T12:05:57.904Z,86.80
2018-10-01T12:06:57.859Z,84.42
2018-10-01T12:07:57.813Z,84.42
2018-10-01T12:08:57.803Z,83.75
2018-10-01T12:09:57.883Z,84.42
2018-10-01T12:10:57.683Z,84.13
2018-10-01T12:11:57.636Z,84.80
2018-10-01T12:12:57.593Z,87.48
2018-10-01T12:13:57.549Z,88.15
2018-10-01T12:14:57.572Z,88.87
2018-10-01T12:15:57.692Z,90.59
2018-10-01T12:16:57.412Z,89.15
2018-10-01T12:17:57.370Z,87.57
2018-10-01T12:18:57.326Z,88.34
2018-10-01T12:19:57.279Z,88.81
2018-10-01T12:20:57.262Z,87.48
2018-10-01T12:21:57.196Z,88.24
2018-10-01T12:22:57.151Z,86.80
2018-10-01T12:23:57.105Z,85.47
2018-10-01T12:24:57.066Z,85.85
2018-10-01T12:25:57.018Z,87.66
2018-10-01T12:26:56.984Z,87.38
2018-10-01T12:27:56.925Z,87.52
2018-10-01T12:28:56.940Z,86.66
2018-10-01T12:29:56.838Z,87.62
2018-10-01T12:30:56.796Z,88.09
2018-10-01T12:31:56.749Z,84.84
2018-10-01T12:32:56.713Z,85.51
2018-10-01T12:33:56.659Z,87.43
2018-10-01T12:34:56.653Z,88.00
2018-10-01T12:35:56.568Z,87.04
2018-10-01T12:36:56.524Z,83.22
2018-10-01T12:37:56.483Z,85.13
2018-10-01T12:38:56.483Z,85.32
2018-10-01T12:39:56.391Z,85.22
2018-10-01T12:40:56.349Z,85.03
2018-10-01T12:41:56.305Z,84.55
2018-10-01T12:42:56.390Z,84.08
2018-10-01T12:43:56.215Z,83.79
2018-10-01T12:44:56.176Z,82.54
2018-10-01T12:45:56.130Z,83.22
2018-10-01T12:46:56.085Z,81.68
2018-10-01T12:47:56.041Z,82.07
2018-10-01T12:48:56.006Z,79.77
2018-10-01T12:49:55.951Z,80.54
2018-10-01T12:50:55.909Z,82.07
2018-10-01T12:51:55.861Z,81.40